createdAt,value
2018-05-29T00:02:51.874Z,63.40
2018-05-29T00:05:54.444Z,63.20
2018-05-29T00:08:57.207Z,63.30
2018-05-29T00:12:00.566Z,63.00
2018-05-29T00:15:03.494Z,62.90
2018-05-29T00:18:06.084Z,63.10
2018-05-29T00:21:09.437Z,63.10
2018-05-29T00:24:12.189Z,63.00
2018-05-29T00:27:14.875Z,63.10
2018-05-29T00:30:17.519Z,63.40
2018-05-29T00:33:20.163Z,63.40
2018-05-29T00:36:23.544Z,63.50
2018-05-29T00:39:26.148Z,63.70
2018-05-29T00:42:28.777Z,63.80
2018-05-29T00:45:32.136Z,64.10
2018-05-29T00:48:34.885Z,64.10
2018-05-29T00:51:37.681Z,64.30
2018-05-29T00:54:40.344Z,64.40
2018-05-29T00:57:43.075Z,64.70
2018-05-29T01:00:45.681Z,64.80
2018-05-29T01:03:48.261Z,64.70
2018-05-29T01:06:51.827Z,64.80
2018-05-29T01:09:55.023Z,64.80
2018-05-29T01:12:57.626Z,65.20
2018-05-29T01:16:00.226Z,65.10
2018-05-29T01:22:19.958Z,67.00
2018-05-29T01:25:22.595Z,69.10
2018-05-29T01:28:25.223Z,69.80
2018-05-29T01:31:28.605Z,69.60
2018-05-29T01:34:31.219Z,69.50
2018-05-29T01:37:33.825Z,69.10
2018-05-29T01:40:36.399Z,69.30
2018-05-29T01:43:39.032Z,69.10
2018-05-29T01:46:42.378Z,67.40
2018-05-29T01:49:44.971Z,67.40
2018-05-29T01:52:47.543Z,67.00
2018-05-29T01:55:50.156Z,66.00
2018-05-29T01:58:52.757Z,66.00
2018-05-29T02:01:55.351Z,66.40
2018-05-29T02:04:57.924Z,67.70
2018-05-29T02:08:00.624Z,67.30
2018-05-29T02:11:04.002Z,67.00
2018-05-29T02:14:09.346Z,66.90
2018-05-29T02:17:12.155Z,66.90
2018-05-29T02:20:15.557Z,66.60
2018-05-29T02:23:18.180Z,66.60
2018-05-29T02:26:20.766Z,67.00
2018-05-29T02:29:23.363Z,67.00
2018-05-29T02:32:25.977Z,67.00
2018-05-29T02:35:29.337Z,66.70
2018-05-29T02:38:31.966Z,66.70
2018-05-29T02:41:35.474Z,66.70
2018-05-29T02:44:38.817Z,66.60
2018-05-29T02:47:41.436Z,66.60
2018-05-29T02:50:44.031Z,66.60
2018-05-29T02:53:46.630Z,66.50
2018-05-29T02:56:49.260Z,66.60
2018-05-29T02:59:51.853Z,66.60
2018-05-29T03:02:54.488Z,66.90
2018-05-29T03:05:57.076Z,66.80
2018-05-29T03:08:59.747Z,66.90
2018-05-29T03:12:02.330Z,67.00
2018-05-29T03:15:04.987Z,67.00
2018-05-29T03:18:08.363Z,67.00
2018-05-29T03:21:11.007Z,66.90
2018-05-29T03:24:13.598Z,66.90
2018-05-29T03:27:16.190Z,67.10
2018-05-29T03:30:18.775Z,66.70
2018-05-29T03:33:21.379Z,67.40
2018-05-29T03:36:23.981Z,67.00
2018-05-29T03:39:28.046Z,67.30
2018-05-29T03:42:30.632Z,67.30
2018-05-29T03:45:33.223Z,67.50
2018-05-29T03:48:35.832Z,67.80
2018-05-29T03:51:38.480Z,67.80
2018-05-29T03:54:41.088Z,67.90
2018-05-29T03:57:43.690Z,67.90
2018-05-29T04:00:46.276Z,67.90
2018-05-29T04:03:49.643Z,67.70
2018-05-29T04:06:52.248Z,67.70
2018-05-29T04:09:55.781Z,67.80
2018-05-29T04:12:58.390Z,68.00
2018-05-29T04:16:00.972Z,68.30
2018-05-29T04:19:03.581Z,68.50
2018-05-29T04:22:06.337Z,68.60
2018-05-29T04:25:09.859Z,68.60
2018-05-29T04:28:13.502Z,68.40
2018-05-29T04:31:17.010Z,68.30
2018-05-29T04:34:20.386Z,68.50
2018-05-29T04:37:23.817Z,68.50
2018-05-29T04:40:27.179Z,68.60
2018-05-29T04:43:29.765Z,68.40
2018-05-29T04:46:32.389Z,67.90
2018-05-29T04:49:35.048Z,67.40
2018-05-29T04:52:37.600Z,67.00
2018-05-29T04:55:40.235Z,67.00
2018-05-29T04:58:42.842Z,66.40
2018-05-29T05:01:45.605Z,66.60
2018-05-29T05:04:48.181Z,66.60
2018-05-29T05:07:50.864Z,66.70
2018-05-29T05:10:53.455Z,67.00
2018-05-29T05:13:56.186Z,67.10
2018-05-29T05:16:58.793Z,66.80
2018-05-29T05:20:01.396Z,66.30
2018-05-29T05:23:04.047Z,65.80
2018-05-29T05:26:06.648Z,65.00
2018-05-29T05:29:09.211Z,63.80
2018-05-29T05:32:11.807Z,62.10
2018-05-29T05:35:14.520Z,60.60
2018-05-29T05:38:17.290Z,59.90
2018-05-29T05:41:19.883Z,59.60
2018-05-29T05:44:22.504Z,59.80
2018-05-29T05:47:25.079Z,59.80
2018-05-29T05:50:28.010Z,59.50
2018-05-29T05:53:31.353Z,59.10
2018-05-29T05:56:34.118Z,58.50
2018-05-29T05:59:36.960Z,57.90
2018-05-29T06:02:39.711Z,57.40
2018-05-29T06:05:42.274Z,56.90
2018-05-29T06:08:45.451Z,56.20
2018-05-29T06:11:48.127Z,55.50
2018-05-29T06:14:50.757Z,55.60
2018-05-29T06:17:53.377Z,56.10
2018-05-29T06:20:55.979Z,56.30
2018-05-29T06:23:58.559Z,56.20
2018-05-29T06:27:01.897Z,54.40
2018-05-29T06:30:04.681Z,54.40
2018-05-29T06:33:07.263Z,53.40
2018-05-29T06:36:09.851Z,53.40
2018-05-29T06:39:12.437Z,52.50
2018-05-29T06:42:15.073Z,52.20
2018-05-29T06:45:18.613Z,51.70
2018-05-29T06:48:21.252Z,51.70
2018-05-29T06:51:23.835Z,52.00
2018-05-29T06:54:26.487Z,52.00
2018-05-29T06:57:29.080Z,51.50
2018-05-29T07:00:31.710Z,50.60
2018-05-29T07:03:34.469Z,50.00
2018-05-29T07:06:37.049Z,48.80
2018-05-29T07:09:39.621Z,48.30
2018-05-29T07:12:42.653Z,48.20
2018-05-29T07:15:45.231Z,48.50
2018-05-29T07:18:48.020Z,49.20
2018-05-29T07:21:50.631Z,49.20
2018-05-29T07:24:53.220Z,49.00
2018-05-29T07:27:55.854Z,47.00
2018-05-29T07:30:58.544Z,44.10
2018-05-29T07:34:01.135Z,41.80
2018-05-29T07:37:03.746Z,40.20
2018-05-29T07:40:06.371Z,37.00
2018-05-29T07:43:09.115Z,36.10
2018-05-29T07:46:11.697Z,36.50
2018-05-29T07:49:14.451Z,36.20
2018-05-29T07:52:17.233Z,35.90
2018-05-29T07:55:19.823Z,36.40
2018-05-29T07:58:22.439Z,36.60
2018-05-29T08:01:25.042Z,37.30
2018-05-29T08:04:27.700Z,37.90
2018-05-29T08:07:30.304Z,36.70
2018-05-29T08:10:32.999Z,37.30
2018-05-29T08:13:35.717Z,37.80
2018-05-29T08:16:38.325Z,38.30
2018-05-29T08:19:41.081Z,38.20
2018-05-29T08:22:43.833Z,38.20
2018-05-29T08:25:46.457Z,39.30
2018-05-29T08:28:49.030Z,39.90
2018-05-29T08:31:51.623Z,40.40
2018-05-29T08:34:54.236Z,41.50
2018-05-29T08:37:56.871Z,41.80
2018-05-29T08:40:59.450Z,41.70
2018-05-29T08:44:02.058Z,41.50
2018-05-29T08:47:04.660Z,42.50
2018-05-29T08:50:07.265Z,41.60
2018-05-29T08:53:10.271Z,42.80
2018-05-29T08:56:13.698Z,42.70
2018-05-29T08:59:16.398Z,42.70
2018-05-29T09:02:19.274Z,41.80
2018-05-29T09:05:21.878Z,40.80
2018-05-29T09:08:24.500Z,41.20
2018-05-29T09:11:27.112Z,41.60
2018-05-29T09:14:30.618Z,40.80
2018-05-29T09:17:33.204Z,40.50
2018-05-29T09:20:35.867Z,40.90
2018-05-29T09:23:38.551Z,40.30
2018-05-29T09:26:42.167Z,43.80
2018-05-29T09:29:44.876Z,43.70
2018-05-29T09:32:47.422Z,43.60
2018-05-29T09:35:50.833Z,42.20
2018-05-29T09:38:53.461Z,42.20
2018-05-29T09:41:56.095Z,42.30
2018-05-29T09:44:58.673Z,41.00
2018-05-29T09:48:02.240Z,42.40
2018-05-29T09:51:04.836Z,42.40
2018-05-29T09:54:07.509Z,40.90
2018-05-29T09:57:10.119Z,41.10
2018-05-29T10:00:12.736Z,42.10
2018-05-29T10:03:15.327Z,43.40
2018-05-29T10:06:17.991Z,44.40
2018-05-29T10:09:20.676Z,44.00
2018-05-29T10:12:23.275Z,43.70
2018-05-29T10:15:25.877Z,42.10
2018-05-29T10:18:28.467Z,41.10
2018-05-29T10:21:31.207Z,41.10
2018-05-29T10:24:33.871Z,40.80
2018-05-29T10:27:36.468Z,41.00
2018-05-29T10:30:39.035Z,39.40
2018-05-29T10:33:41.662Z,39.60
2018-05-29T10:36:44.422Z,39.20
2018-05-29T10:39:47.134Z,39.70
2018-05-29T10:42:49.725Z,38.90
2018-05-29T10:45:52.347Z,38.40
2018-05-29T10:48:55.737Z,37.00
2018-05-29T10:51:59.127Z,39.40
2018-05-29T10:55:01.728Z,39.40
2018-05-29T10:58:04.437Z,41.00
2018-05-29T11:01:07.657Z,40.90
2018-05-29T11:04:10.300Z,39.90
2018-05-29T11:07:13.706Z,40.80
2018-05-29T11:10:17.134Z,40.80
2018-05-29T11:13:20.135Z,41.10
2018-05-29T11:16:22.734Z,40.80
2018-05-29T11:19:25.369Z,41.40
2018-05-29T11:22:28.000Z,41.20
2018-05-29T11:25:30.617Z,41.10
2018-05-29T11:28:33.216Z,41.90
2018-05-29T11:31:35.824Z,42.50
2018-05-29T11:34:38.406Z,43.40
2018-05-29T11:37:40.987Z,43.00
2018-05-29T11:40:43.592Z,42.80
2018-05-29T11:43:46.229Z,42.00
2018-05-29T11:46:48.831Z,41.40
2018-05-29T11:49:51.449Z,41.90
2018-05-29T11:52:54.387Z,42.00
2018-05-29T11:55:56.989Z,42.20
2018-05-29T11:58:59.755Z,42.50
2018-05-29T12:02:02.342Z,42.70
2018-05-29T12:05:05.145Z,43.00
2018-05-29T12:08:07.750Z,43.10
2018-05-29T12:11:10.413Z,43.60
2018-05-29T12:14:13.243Z,43.80
2018-05-29T12:17:16.619Z,43.50
2018-05-29T12:20:19.381Z,43.90
2018-05-29T12:23:22.035Z,44.90
2018-05-29T12:26:24.637Z,45.00
2018-05-29T12:29:27.431Z,45.60
2018-05-29T12:32:30.405Z,46.30
2018-05-29T12:35:33.089Z,45.80
2018-05-29T12:38:35.770Z,46.00
2018-05-29T12:41:38.369Z,45.80
2018-05-29T12:44:41.046Z,46.60
2018-05-29T12:47:43.810Z,46.50
2018-05-29T12:50:47.246Z,46.40
2018-05-29T12:53:49.860Z,46.30
2018-05-29T12:56:52.516Z,47.20
2018-05-29T12:59:55.100Z,46.60
2018-05-29T13:02:57.727Z,46.50
2018-05-29T13:06:00.338Z,48.50
2018-05-29T13:09:03.436Z,49.10
2018-05-29T13:12:06.042Z,49.60
2018-05-29T13:15:08.679Z,50.40
2018-05-29T13:18:11.302Z,51.20
2018-05-29T13:21:13.924Z,52.00
2018-05-29T13:24:16.563Z,52.20
2018-05-29T13:27:19.150Z,53.90
2018-05-29T13:30:21.766Z,54.10
2018-05-29T13:33:24.435Z,54.50
2018-05-29T13:36:27.037Z,54.00
2018-05-29T13:39:29.757Z,55.40
2018-05-29T13:42:32.394Z,56.40
2018-05-29T13:45:34.999Z,57.50
2018-05-29T13:48:38.373Z,58.70
2018-05-29T13:51:41.018Z,58.70
2018-05-29T13:54:43.692Z,58.80
2018-05-29T13:57:46.311Z,58.80
2018-05-29T14:00:48.911Z,58.90
2018-05-29T14:03:51.512Z,59.40
2018-05-29T14:06:55.065Z,59.30
2018-05-29T14:09:57.709Z,58.70
2018-05-29T14:13:01.125Z,59.00
2018-05-29T14:16:03.913Z,59.00
2018-05-29T14:19:06.495Z,60.30
2018-05-29T14:22:09.127Z,60.50
2018-05-29T14:25:11.750Z,61.40
2018-05-29T14:28:15.368Z,61.70
2018-05-29T14:31:18.050Z,61.60
2018-05-29T14:34:20.674Z,62.80
2018-05-29T14:37:23.330Z,62.60
2018-05-29T14:40:25.974Z,62.50
2018-05-29T14:43:29.334Z,63.90
2018-05-29T14:46:32.084Z,63.80
2018-05-29T14:49:34.702Z,63.90
2018-05-29T14:52:37.454Z,63.70
2018-05-29T14:55:40.083Z,64.50
2018-05-29T14:58:42.733Z,64.90
2018-05-29T15:01:45.378Z,66.20
2018-05-29T15:04:48.924Z,66.90
2018-05-29T15:07:51.562Z,66.80
2018-05-29T15:10:54.914Z,69.00
2018-05-29T15:13:57.509Z,68.90
2018-05-29T15:17:00.096Z,69.30
2018-05-29T15:20:02.737Z,69.30
2018-05-29T15:23:05.361Z,69.60
2018-05-29T15:26:07.977Z,69.00
2018-05-29T15:29:10.626Z,69.60
2018-05-29T15:32:13.232Z,69.60
2018-05-29T15:35:16.870Z,69.40
2018-05-29T15:38:19.591Z,69.00
2018-05-29T15:41:22.218Z,69.40
2018-05-29T15:44:24.863Z,69.70
2018-05-29T15:47:28.397Z,70.20
2018-05-29T15:50:31.026Z,70.20
2018-05-29T15:53:33.606Z,70.50
2018-05-29T15:56:36.849Z,71.00
2018-05-29T15:59:40.230Z,71.80
2018-05-29T16:02:43.072Z,71.80
2018-05-29T16:05:45.670Z,72.00
2018-05-29T16:08:48.339Z,71.50
2018-05-29T16:11:51.002Z,71.60
2018-05-29T16:14:54.397Z,71.40
2018-05-29T16:17:56.977Z,71.40
2018-05-29T16:21:00.622Z,71.20
2018-05-29T16:24:03.233Z,71.00
2018-05-29T16:27:05.872Z,71.50
2018-05-29T16:30:08.560Z,70.80
2018-05-29T16:33:11.177Z,70.10
2018-05-29T16:36:13.743Z,69.80
2018-05-29T16:39:16.350Z,69.70
2018-05-29T16:42:19.143Z,69.70
2018-05-29T16:45:21.888Z,69.00
2018-05-29T16:48:24.478Z,68.60
2018-05-29T16:51:27.084Z,69.50
2018-05-29T16:54:29.685Z,69.70
2018-05-29T16:57:32.412Z,68.60
2018-05-29T17:00:35.242Z,69.10
2018-05-29T17:03:37.822Z,69.20
2018-05-29T17:06:40.416Z,68.60
2018-05-29T17:09:43.266Z,68.50
2018-05-29T17:12:45.854Z,68.20
2018-05-29T17:15:48.503Z,67.20
2018-05-29T17:18:51.949Z,67.20
2018-05-29T17:21:54.615Z,68.00
2018-05-29T17:24:57.264Z,67.80
2018-05-29T17:27:59.892Z,69.20
2018-05-29T17:31:02.540Z,69.60
2018-05-29T17:34:05.176Z,67.60
2018-05-29T17:37:07.797Z,68.80
2018-05-29T17:40:10.501Z,69.20
2018-05-29T17:43:13.088Z,69.80
2018-05-29T17:46:15.878Z,68.30
2018-05-29T17:49:18.652Z,68.90
2018-05-29T17:52:21.845Z,71.10
2018-05-29T17:55:25.334Z,70.20
2018-05-29T17:58:28.404Z,70.80
2018-05-29T18:01:31.397Z,71.30
2018-05-29T18:04:35.014Z,74.20
2018-05-29T18:07:37.582Z,74.20
2018-05-29T18:10:40.820Z,72.30
2018-05-29T18:13:43.541Z,72.70
2018-05-29T18:16:46.381Z,73.20
2018-05-29T18:19:49.692Z,72.70
2018-05-29T18:22:52.786Z,71.50
2018-05-29T18:25:55.856Z,71.50
2018-05-29T18:28:58.633Z,72.20
2018-05-29T18:32:01.292Z,71.70
2018-05-29T18:35:04.033Z,72.10
2018-05-29T18:38:06.833Z,72.50
2018-05-29T18:41:09.422Z,71.20
2018-05-29T18:44:12.190Z,71.20
2018-05-29T18:47:14.853Z,71.70
2018-05-29T18:50:17.604Z,72.00
2018-05-29T18:53:20.419Z,71.90
2018-05-29T18:56:23.792Z,71.60
2018-05-29T18:59:26.425Z,71.60
2018-05-29T19:02:29.328Z,71.40
2018-05-29T19:05:31.943Z,72.00
2018-05-29T19:08:34.567Z,72.00
2018-05-29T19:11:37.186Z,72.00
2018-05-29T19:14:39.878Z,72.30
2018-05-29T19:17:42.524Z,72.60
2018-05-29T19:20:45.204Z,72.50
2018-05-29T19:23:48.819Z,71.70
2018-05-29T19:26:51.502Z,71.50
2018-05-29T19:29:54.123Z,71.60
2018-05-29T19:32:56.867Z,71.40
2018-05-29T19:35:59.478Z,70.80
2018-05-29T19:39:02.109Z,71.30
2018-05-29T19:42:05.544Z,71.60
2018-05-29T19:45:08.284Z,71.60
2018-05-29T19:48:11.118Z,71.60
2018-05-29T19:51:13.825Z,71.90
2018-05-29T19:54:16.495Z,72.00
2018-05-29T19:57:19.111Z,72.10
2018-05-29T20:00:22.573Z,72.10
2018-05-29T20:03:30.996Z,72.10
2018-05-29T20:06:33.687Z,72.70
2018-05-29T20:09:36.251Z,72.60
2018-05-29T20:12:38.908Z,72.50
2018-05-29T20:15:41.553Z,72.40
2018-05-29T20:18:45.123Z,72.90
2018-05-29T20:21:47.766Z,72.70
2018-05-29T20:24:50.392Z,71.80
2018-05-29T20:27:53.046Z,72.00
2018-05-29T20:30:56.465Z,71.50
2018-05-29T20:33:59.050Z,71.50
2018-05-29T20:37:01.755Z,70.80
2018-05-29T20:40:04.608Z,72.50
2018-05-29T20:43:07.990Z,73.20
2018-05-29T20:46:10.623Z,73.20
2018-05-29T20:49:13.292Z,74.10
2018-05-29T20:52:15.919Z,74.80
2018-05-29T20:55:18.588Z,75.80
2018-05-29T20:58:21.306Z,77.00
2018-05-29T21:01:23.945Z,77.50
2018-05-29T21:04:26.531Z,77.20
2018-05-29T21:07:29.127Z,77.90
2018-05-29T21:10:31.745Z,77.90
2018-05-29T21:13:34.342Z,78.10
2018-05-29T21:16:37.142Z,77.70
2018-05-29T21:19:41.790Z,77.70
2018-05-29T21:22:44.412Z,77.50
2018-05-29T21:25:47.236Z,77.00
2018-05-29T21:28:49.968Z,77.20
2018-05-29T21:31:52.768Z,77.20
2018-05-29T21:34:55.505Z,77.60
2018-05-29T21:37:58.267Z,77.90
2018-05-29T21:41:01.645Z,77.50
2018-05-29T21:44:05.115Z,77.30
2018-05-29T21:47:07.727Z,77.20
2018-05-29T21:50:10.312Z,77.60
2018-05-29T21:53:12.926Z,77.60
2018-05-29T21:56:15.593Z,77.60
2018-05-29T21:59:19.928Z,77.20
2018-05-29T22:02:22.529Z,77.20
2018-05-29T22:05:26.021Z,76.90
2018-05-29T22:08:28.639Z,76.80
2018-05-29T22:11:31.228Z,76.80
2018-05-29T22:14:33.967Z,77.00
2018-05-29T22:17:36.568Z,77.10
2018-05-29T22:20:39.380Z,76.80
2018-05-29T22:23:42.024Z,76.80
2018-05-29T22:26:44.725Z,76.60
2018-05-29T22:29:47.340Z,76.90
2018-05-29T22:32:49.959Z,77.00
2018-05-29T22:35:52.746Z,76.90
2018-05-29T22:38:56.155Z,76.40
2018-05-29T22:41:58.760Z,76.40
2018-05-29T22:45:01.356Z,76.50
2018-05-29T22:48:03.990Z,76.40
2018-05-29T22:51:06.571Z,76.20
2018-05-29T22:54:09.925Z,76.20
2018-05-29T22:57:12.539Z,76.10
2018-05-29T23:00:15.184Z,76.20
2018-05-29T23:03:17.835Z,76.20
2018-05-29T23:06:20.455Z,76.30
2018-05-29T23:09:23.051Z,76.40
2018-05-29T23:12:25.664Z,76.40
2018-05-29T23:15:28.267Z,76.40
2018-05-29T23:18:30.907Z,76.30
2018-05-29T23:21:33.515Z,76.00
2018-05-29T23:24:36.135Z,76.10
2018-05-29T23:27:38.732Z,76.20
2018-05-29T23:30:41.374Z,76.20
2018-05-29T23:33:43.955Z,76.40
2018-05-29T23:36:46.608Z,76.60
2018-05-29T23:39:49.172Z,76.80
2018-05-29T23:42:52.550Z,77.10
2018-05-29T23:45:55.136Z,76.80
2018-05-29T23:48:57.748Z,77.00
2018-05-29T23:52:00.323Z,77.00
2018-05-29T23:55:04.417Z,77.30
2018-05-29T23:58:06.995Z,77.40
